createdAt,value
2019-03-04T00:01:01.561Z,64.53
2019-03-04T00:03:32.604Z,64.10
2019-03-04T00:06:03.758Z,63.70
2019-03-04T00:08:35.024Z,63.31
2019-03-04T00:11:05.963Z,63.18
2019-03-04T00:13:36.946Z,63.21
2019-03-04T00:16:08.208Z,62.52
2019-03-04T00:18:39.213Z,62.25
2019-03-04T00:21:10.367Z,62.39
2019-03-04T00:23:41.433Z,62.79
2019-03-04T00:26:12.692Z,62.12
2019-03-04T00:28:44.282Z,61.58
2019-03-04T00:31:15.061Z,61.08
2019-03-04T00:33:46.069Z,60.78
2019-03-04T00:36:17.153Z,60.95
2019-03-04T00:38:48.252Z,60.41
2019-03-04T00:41:19.258Z,59.49
2019-03-04T00:43:50.256Z,59.45
2019-03-04T00:46:21.670Z,59.30
2019-03-04T00:48:52.665Z,59.83
2019-03-04T00:51:23.430Z,59.01
2019-03-04T00:53:54.432Z,59.70
2019-03-04T00:56:25.338Z,59.28
2019-03-04T00:58:56.367Z,58.46
2019-03-04T01:01:27.215Z,58.27
2019-03-04T01:03:58.280Z,58.19
2019-03-04T01:06:29.305Z,58.06
2019-03-04T01:09:00.293Z,58.01
2019-03-04T01:11:31.249Z,57.95
2019-03-04T01:14:02.339Z,57.43
2019-03-04T01:16:33.370Z,56.94
2019-03-04T01:19:04.478Z,56.61
2019-03-04T01:21:36.542Z,56.87
2019-03-04T01:24:07.823Z,56.75
2019-03-04T01:26:38.707Z,57.05
2019-03-04T01:29:10.770Z,56.66
2019-03-04T01:31:43.568Z,56.68
2019-03-04T01:34:15.765Z,56.66
2019-03-04T01:36:47.997Z,56.94
2019-03-04T01:39:19.295Z,57.01
2019-03-04T01:41:50.569Z,57.67
2019-03-04T01:44:21.589Z,57.67
2019-03-04T01:46:52.685Z,57.91
2019-03-04T01:49:23.539Z,57.62
2019-03-04T01:51:54.342Z,58.50
2019-03-04T01:54:28.114Z,58.42
2019-03-04T01:56:58.596Z,58.42
2019-03-04T01:59:29.448Z,58.57
2019-03-04T02:02:00.561Z,58.32
2019-03-04T02:04:31.607Z,58.85
2019-03-04T02:07:02.491Z,59.16
2019-03-04T02:09:33.616Z,58.64
2019-03-04T02:12:04.787Z,57.89
2019-03-04T02:14:35.809Z,58.16
2019-03-04T02:17:06.838Z,57.96
2019-03-04T02:19:37.686Z,58.54
2019-03-04T02:22:08.594Z,58.83
2019-03-04T02:24:39.494Z,58.84
2019-03-04T02:27:10.282Z,58.63
2019-03-04T02:29:41.300Z,58.78
2019-03-04T02:32:12.095Z,59.45
2019-03-04T02:34:43.422Z,60.09
2019-03-04T02:37:14.526Z,59.90
2019-03-04T02:39:45.423Z,60.68
2019-03-04T02:42:16.756Z,61.05
2019-03-04T02:44:48.020Z,62.91
2019-03-04T02:47:18.812Z,64.81
2019-03-04T02:49:50.146Z,66.70
2019-03-04T02:52:21.038Z,67.91
2019-03-04T02:54:52.378Z,67.44
2019-03-04T02:57:23.180Z,66.51
2019-03-04T02:59:54.197Z,66.37
2019-03-04T03:02:25.532Z,65.73
2019-03-04T03:04:56.522Z,65.24
2019-03-04T03:07:27.796Z,65.46
2019-03-04T03:09:58.876Z,65.39
2019-03-04T03:12:29.683Z,66.25
2019-03-04T03:15:00.724Z,66.27
2019-03-04T03:17:33.466Z,67.49
2019-03-04T03:20:05.084Z,68.56
2019-03-04T03:22:36.614Z,67.65
2019-03-04T03:25:08.129Z,69.49
2019-03-04T03:27:39.088Z,73.76
2019-03-04T03:30:10.865Z,74.59
2019-03-04T03:32:41.969Z,75.81
2019-03-04T03:35:13.194Z,76.22
2019-03-04T03:37:44.252Z,77.80
2019-03-04T03:40:15.690Z,76.75
2019-03-04T03:42:47.140Z,77.02
2019-03-04T03:45:18.296Z,75.56
2019-03-04T03:47:49.664Z,70.01
2019-03-04T03:50:20.774Z,73.40
2019-03-04T03:52:51.856Z,71.21
2019-03-04T03:55:22.870Z,67.85
2019-03-04T03:57:54.254Z,67.69
2019-03-04T04:00:25.232Z,66.25
2019-03-04T04:02:56.178Z,65.77
2019-03-04T04:05:27.423Z,65.06
2019-03-04T04:07:58.230Z,65.54
2019-03-04T04:10:29.085Z,64.72
2019-03-04T04:12:59.969Z,64.05
2019-03-04T04:15:31.139Z,64.81
2019-03-04T04:18:02.015Z,63.64
2019-03-04T04:20:33.943Z,63.76
2019-03-04T04:23:05.103Z,63.97
2019-03-04T04:25:36.315Z,64.49
2019-03-04T04:28:09.294Z,64.59
2019-03-04T04:30:40.834Z,64.13
2019-03-04T04:33:11.615Z,64.14
2019-03-04T04:35:42.483Z,63.33
2019-03-04T04:38:13.881Z,63.84
2019-03-04T04:40:45.026Z,63.98
2019-03-04T04:43:16.289Z,64.18
2019-03-04T04:45:47.376Z,63.22
2019-03-04T04:48:18.412Z,64.30
2019-03-04T04:50:49.253Z,64.17
2019-03-04T04:53:20.046Z,65.62
2019-03-04T04:55:51.796Z,64.37
2019-03-04T04:58:22.628Z,63.05
2019-03-04T05:00:54.727Z,61.89
2019-03-04T05:03:26.070Z,62.50
2019-03-04T05:05:57.119Z,61.96
2019-03-04T05:08:28.201Z,60.42
2019-03-04T05:10:59.949Z,60.52
2019-03-04T05:13:31.389Z,60.60
2019-03-04T05:16:02.428Z,60.93
2019-03-04T05:18:33.304Z,59.66
2019-03-04T05:21:06.398Z,58.86
2019-03-04T05:23:37.458Z,59.37
2019-03-04T05:26:08.544Z,59.67
2019-03-04T05:28:39.588Z,58.48
2019-03-04T05:31:10.437Z,58.04
2019-03-04T05:33:41.702Z,58.07
2019-03-04T05:36:12.954Z,57.42
2019-03-04T05:38:44.162Z,57.76
2019-03-04T05:41:14.942Z,56.00
2019-03-04T05:43:47.049Z,54.58
2019-03-04T05:46:18.108Z,56.51
2019-03-04T05:48:49.421Z,54.88
2019-03-04T05:51:21.399Z,54.27
2019-03-04T05:53:52.764Z,53.94
2019-03-04T05:56:24.797Z,54.17
2019-03-04T05:58:56.884Z,52.77
2019-03-04T06:01:30.271Z,52.68
2019-03-04T06:04:03.578Z,52.48
2019-03-04T06:07:09.455Z,52.87
2019-03-04T06:09:40.260Z,53.11
2019-03-04T06:12:11.613Z,52.26
2019-03-04T06:14:42.482Z,51.41
2019-03-04T06:17:13.558Z,52.35
2019-03-04T06:19:44.573Z,53.07
2019-03-04T06:22:15.522Z,52.90
2019-03-04T06:24:46.554Z,52.80
2019-03-04T06:27:17.350Z,51.66
2019-03-04T06:29:48.379Z,52.11
2019-03-04T06:32:19.382Z,52.22
2019-03-04T06:34:50.419Z,52.96
2019-03-04T06:37:21.418Z,52.69
2019-03-04T06:39:52.459Z,52.55
2019-03-04T06:42:23.820Z,53.58
2019-03-04T06:44:54.877Z,53.69
2019-03-04T06:47:25.758Z,53.48
2019-03-04T06:49:56.772Z,53.39
2019-03-04T06:52:27.865Z,54.21
2019-03-04T06:55:24.481Z,54.97
2019-03-04T06:57:55.414Z,56.81
2019-03-04T07:00:50.455Z,59.80
2019-03-04T07:04:07.704Z,64.68
2019-03-04T07:06:38.705Z,64.76
2019-03-04T07:09:17.968Z,68.01
2019-03-04T07:11:52.690Z,67.04
2019-03-04T07:14:23.853Z,65.95
2019-03-04T07:16:55.001Z,66.49
2019-03-04T07:19:27.974Z,65.27
2019-03-04T07:21:59.068Z,64.48
2019-03-04T07:24:30.492Z,63.76
2019-03-04T07:27:01.339Z,62.26
2019-03-04T07:29:32.213Z,61.36
2019-03-04T07:32:03.182Z,59.02
2019-03-04T07:34:34.262Z,58.79
2019-03-04T07:37:05.235Z,59.31
2019-03-04T07:39:36.405Z,58.65
2019-03-04T07:42:07.264Z,58.31
2019-03-04T07:44:38.308Z,58.56
2019-03-04T07:47:09.161Z,55.66
2019-03-04T07:49:40.322Z,53.51
2019-03-04T07:52:11.168Z,53.08
2019-03-04T07:54:42.112Z,51.53
2019-03-04T07:57:13.416Z,52.54
2019-03-04T07:59:44.558Z,51.86
2019-03-04T08:02:15.898Z,51.71
2019-03-04T08:04:46.763Z,51.23
2019-03-04T08:07:42.445Z,51.19
2019-03-04T08:10:45.779Z,51.96
2019-03-04T08:13:26.726Z,52.00
2019-03-04T08:15:58.548Z,53.20
2019-03-04T08:18:29.424Z,54.49
2019-03-04T08:21:00.578Z,54.22
2019-03-04T08:23:31.370Z,55.31
2019-03-04T08:26:02.583Z,55.09
2019-03-04T08:28:33.651Z,55.54
2019-03-04T08:31:04.579Z,55.53
2019-03-04T08:33:35.670Z,55.52
2019-03-04T08:36:06.770Z,55.85
2019-03-04T08:38:37.781Z,55.71
2019-03-04T08:41:08.554Z,55.54
2019-03-04T08:43:39.344Z,55.94
2019-03-04T08:46:10.193Z,54.83
2019-03-04T08:48:41.006Z,54.89
2019-03-04T08:51:11.890Z,54.82
2019-03-04T08:53:43.254Z,54.74
2019-03-04T08:56:14.330Z,54.14
2019-03-04T08:58:45.601Z,53.88
2019-03-04T09:01:16.947Z,53.70
2019-03-04T09:03:47.907Z,51.93
2019-03-04T09:06:18.824Z,51.73
2019-03-04T09:08:50.120Z,51.80
2019-03-04T09:11:21.043Z,51.14
2019-03-04T09:13:51.911Z,50.49
2019-03-04T09:16:22.928Z,50.81
2019-03-04T09:18:54.031Z,51.74
2019-03-04T09:21:25.382Z,54.12
2019-03-04T09:23:56.258Z,56.79
2019-03-04T09:26:28.476Z,58.05
2019-03-04T09:28:59.759Z,68.57
2019-03-04T09:31:30.702Z,70.79
2019-03-04T09:34:01.496Z,70.62
2019-03-04T09:36:32.575Z,69.97
2019-03-04T09:39:05.540Z,68.34
2019-03-04T09:41:37.910Z,67.39
2019-03-04T09:44:08.709Z,65.88
2019-03-04T09:46:39.713Z,61.98
2019-03-04T09:49:10.585Z,62.16
2019-03-04T09:51:41.510Z,61.63
2019-03-04T09:54:12.555Z,60.25
2019-03-04T09:56:44.057Z,58.79
2019-03-04T09:59:14.976Z,57.14
2019-03-04T10:01:55.778Z,56.92
2019-03-04T10:05:03.063Z,55.87
2019-03-04T10:08:21.466Z,56.64
2019-03-04T10:11:08.473Z,55.49
2019-03-04T10:14:38.696Z,55.96
2019-03-04T10:17:39.609Z,52.46
2019-03-04T10:20:57.706Z,51.95
2019-03-04T10:24:15.919Z,51.83
2019-03-04T10:27:07.226Z,53.89
2019-03-04T10:30:09.380Z,55.86
2019-03-04T10:33:19.129Z,58.87
2019-03-04T10:36:33.774Z,65.64
2019-03-04T10:39:42.122Z,68.40
2019-03-04T10:42:39.004Z,71.11
2019-03-04T10:45:29.670Z,68.92
2019-03-04T10:48:00.819Z,70.75
2019-03-04T10:50:31.683Z,68.78
2019-03-04T10:53:02.470Z,66.85
2019-03-04T10:55:41.460Z,67.15
2019-03-04T10:58:06.495Z,68.22
2019-03-04T11:00:37.493Z,68.70
2019-03-04T11:03:08.350Z,69.70
2019-03-04T11:05:39.220Z,71.38
2019-03-04T11:08:10.396Z,74.34
2019-03-04T11:10:41.297Z,79.49
2019-03-04T11:13:13.291Z,79.48
2019-03-04T11:15:44.423Z,82.01
2019-03-04T11:18:16.042Z,83.63
2019-03-04T11:20:47.046Z,80.18
2019-03-04T11:23:17.818Z,78.64
2019-03-04T11:25:48.677Z,78.29
2019-03-04T11:28:19.559Z,75.15
2019-03-04T11:30:50.456Z,74.54
2019-03-04T11:33:21.250Z,69.81
2019-03-04T11:35:52.405Z,69.17
2019-03-04T11:38:37.897Z,66.78
2019-03-04T11:41:10.315Z,65.50
2019-03-04T11:43:41.170Z,64.48
2019-03-04T11:46:12.311Z,63.39
2019-03-04T11:48:43.159Z,64.08
2019-03-04T11:51:14.038Z,63.02
2019-03-04T11:53:44.812Z,63.98
2019-03-04T11:56:15.685Z,63.13
2019-03-04T11:58:46.467Z,61.61
2019-03-04T12:01:25.802Z,57.66
2019-03-04T12:03:56.957Z,58.23
2019-03-04T12:06:27.910Z,57.89
2019-03-04T12:08:59.042Z,57.25
2019-03-04T12:11:38.026Z,57.82
2019-03-04T12:14:03.332Z,58.05
2019-03-04T12:16:34.365Z,59.84
2019-03-04T12:19:06.794Z,61.86
2019-03-04T12:21:38.249Z,64.19
2019-03-04T12:24:09.288Z,64.18
2019-03-04T12:26:40.614Z,66.53
2019-03-04T12:29:11.749Z,66.77
2019-03-04T12:31:53.566Z,67.70
2019-03-04T12:34:25.039Z,64.69
2019-03-04T12:36:57.461Z,63.01
2019-03-04T12:39:28.363Z,63.07
2019-03-04T12:41:59.423Z,63.00
2019-03-04T12:44:30.396Z,61.47
2019-03-04T12:47:01.345Z,61.79
2019-03-04T12:49:32.349Z,61.51
2019-03-04T12:52:03.505Z,62.10
2019-03-04T12:54:34.577Z,62.64
2019-03-04T12:57:05.436Z,63.38
2019-03-04T12:59:36.441Z,66.22
2019-03-04T13:02:07.542Z,66.80
2019-03-04T13:04:38.532Z,69.95
2019-03-04T13:07:09.954Z,74.74
2019-03-04T13:09:40.704Z,74.63
2019-03-04T13:12:11.558Z,76.81
2019-03-04T13:14:43.030Z,77.59
2019-03-04T13:17:14.183Z,77.39
2019-03-04T13:19:45.206Z,80.36
2019-03-04T13:22:16.287Z,81.24
2019-03-04T13:24:47.922Z,78.82
2019-03-04T13:27:23.765Z,75.18
2019-03-04T13:29:51.551Z,76.04
2019-03-04T13:32:22.687Z,74.28
2019-03-04T13:34:54.015Z,76.26
2019-03-04T13:37:25.179Z,68.28
2019-03-04T13:39:56.272Z,68.11
2019-03-04T13:42:27.476Z,66.25
2019-03-04T13:44:58.713Z,66.24
2019-03-04T13:47:29.524Z,67.00
2019-03-04T13:50:00.450Z,67.51
2019-03-04T13:52:31.574Z,65.24
2019-03-04T13:55:02.442Z,67.02
2019-03-04T13:57:33.626Z,70.45
2019-03-04T14:00:05.112Z,71.28
2019-03-04T14:02:37.517Z,72.70
2019-03-04T14:05:08.696Z,73.18
2019-03-04T14:07:39.780Z,74.22
2019-03-04T14:10:11.924Z,76.09
2019-03-04T14:12:43.454Z,75.87
2019-03-04T14:15:26.210Z,75.23
2019-03-04T14:17:57.081Z,75.78
2019-03-04T14:20:28.006Z,74.55
2019-03-04T14:22:58.868Z,73.49
2019-03-04T14:25:30.005Z,73.88
2019-03-04T14:28:01.833Z,74.54
2019-03-04T14:30:33.681Z,74.58
2019-03-04T14:33:04.546Z,72.87
2019-03-04T14:35:35.402Z,71.56
2019-03-04T14:38:06.579Z,74.38
2019-03-04T14:40:37.720Z,75.83
2019-03-04T14:43:08.596Z,78.88
2019-03-04T14:45:39.656Z,77.34
2019-03-04T14:48:10.684Z,74.50
2019-03-04T14:50:41.514Z,75.34
2019-03-04T14:53:12.378Z,76.08
2019-03-04T14:55:43.290Z,76.43
2019-03-04T14:58:14.393Z,79.07
2019-03-04T15:00:47.264Z,80.11
2019-03-04T15:03:23.149Z,83.10
2019-03-04T15:05:51.335Z,84.49
2019-03-04T15:08:23.168Z,85.40
2019-03-04T15:10:54.006Z,85.17
2019-03-04T15:13:24.913Z,86.68
2019-03-04T15:16:01.453Z,85.91
2019-03-04T15:18:28.325Z,84.68
2019-03-04T15:21:00.189Z,84.74
2019-03-04T15:23:31.130Z,84.11
2019-03-04T15:26:02.026Z,83.36
2019-03-04T15:28:33.007Z,82.04
2019-03-04T15:31:04.064Z,81.38
2019-03-04T15:33:34.984Z,81.27
2019-03-04T15:36:05.832Z,80.76
2019-03-04T15:38:37.804Z,81.50
2019-03-04T15:41:08.523Z,81.27
2019-03-04T15:43:40.297Z,82.24
2019-03-04T15:46:11.150Z,82.35
2019-03-04T15:48:42.714Z,82.62
2019-03-04T15:51:13.757Z,81.92
2019-03-04T15:53:44.836Z,80.77
2019-03-04T15:56:15.598Z,80.46
2019-03-04T15:58:47.423Z,80.60
2019-03-04T16:01:18.351Z,81.01
2019-03-04T16:03:49.523Z,79.86
2019-03-04T16:06:20.722Z,79.50
2019-03-04T16:08:51.533Z,79.79
2019-03-04T16:11:23.161Z,80.03
2019-03-04T16:13:56.213Z,79.91
2019-03-04T16:16:27.273Z,80.91
2019-03-04T16:18:58.285Z,80.94
2019-03-04T16:21:29.130Z,81.25
2019-03-04T16:23:59.988Z,80.40
2019-03-04T16:26:31.722Z,80.22
2019-03-04T16:29:02.661Z,80.63
2019-03-04T16:31:33.729Z,80.25
2019-03-04T16:34:04.583Z,81.47
2019-03-04T16:36:35.717Z,81.14
2019-03-04T16:39:06.991Z,80.06
2019-03-04T16:41:38.223Z,80.83
2019-03-04T16:44:09.055Z,81.65
2019-03-04T16:46:40.094Z,80.63
2019-03-04T16:49:10.953Z,79.68
2019-03-04T16:51:41.859Z,80.15
2019-03-04T16:54:12.646Z,80.32
2019-03-04T16:56:43.966Z,80.29
2019-03-04T16:59:14.989Z,80.19
2019-03-04T17:01:46.052Z,79.46
2019-03-04T17:04:17.319Z,79.60
2019-03-04T17:06:48.461Z,78.95
2019-03-04T17:09:19.874Z,79.33
2019-03-04T17:11:50.813Z,79.14
2019-03-04T17:14:21.580Z,78.40
2019-03-04T17:16:53.008Z,79.41
2019-03-04T17:19:24.064Z,78.51
2019-03-04T17:21:55.144Z,78.67
2019-03-04T17:24:26.085Z,78.99
2019-03-04T17:26:56.922Z,78.06
2019-03-04T17:29:27.703Z,77.35
2019-03-04T17:31:58.756Z,75.32
2019-03-04T17:34:29.848Z,75.62
2019-03-04T17:37:00.609Z,76.50
2019-03-04T17:39:31.751Z,75.92
2019-03-04T17:42:02.878Z,76.48
2019-03-04T17:44:33.800Z,75.86
2019-03-04T17:47:04.863Z,74.43
2019-03-04T17:49:35.741Z,75.19
2019-03-04T17:52:06.853Z,74.27
2019-03-04T17:54:38.232Z,74.15
2019-03-04T17:57:09.249Z,74.25
2019-03-04T17:59:40.169Z,74.31
2019-03-04T18:02:11.095Z,74.58
2019-03-04T18:04:42.210Z,73.23
2019-03-04T18:07:13.370Z,74.78
2019-03-04T18:09:44.400Z,75.35
2019-03-04T18:12:15.936Z,74.84
2019-03-04T18:14:46.820Z,74.32
2019-03-04T18:17:17.640Z,74.38
2019-03-04T18:19:48.673Z,73.49
2019-03-04T18:22:20.000Z,73.71
2019-03-04T18:24:50.951Z,73.90
2019-03-04T18:27:48.824Z,73.26
2019-03-04T18:30:30.864Z,74.42
2019-03-04T18:33:58.010Z,75.35
2019-03-04T18:37:06.287Z,74.68
2019-03-04T18:40:13.249Z,76.13
2019-03-04T18:43:16.573Z,75.25
2019-03-04T18:46:22.098Z,74.72
2019-03-04T18:48:57.106Z,75.28
2019-03-04T18:51:30.122Z,73.93
2019-03-04T18:54:03.306Z,74.60
2019-03-04T18:56:34.333Z,74.66
2019-03-04T18:59:06.209Z,74.45
2019-03-04T19:01:37.374Z,74.48
2019-03-04T19:04:08.226Z,75.13
2019-03-04T19:06:39.696Z,75.02
2019-03-04T19:09:11.330Z,74.62
2019-03-04T19:11:44.104Z,75.16
2019-03-04T19:14:15.311Z,75.62
2019-03-04T19:16:46.391Z,76.23
2019-03-04T19:19:17.468Z,76.37
2019-03-04T19:21:48.860Z,76.68
2019-03-04T19:24:19.920Z,75.99
2019-03-04T19:26:50.990Z,75.47
2019-03-04T19:29:21.825Z,75.51
2019-03-04T19:31:52.941Z,75.40
2019-03-04T19:34:24.009Z,74.92
2019-03-04T19:36:55.096Z,75.06
2019-03-04T19:39:26.047Z,75.09
2019-03-04T19:41:57.052Z,75.78
2019-03-04T19:44:28.038Z,75.74
2019-03-04T19:46:58.966Z,75.67
2019-03-04T19:49:30.125Z,76.15
2019-03-04T19:52:01.540Z,76.16
2019-03-04T19:54:32.378Z,76.44
2019-03-04T19:57:03.203Z,76.66
2019-03-04T19:59:34.472Z,76.53
2019-03-04T20:02:05.399Z,76.99
2019-03-04T20:04:36.864Z,76.73
2019-03-04T20:07:07.752Z,76.93
2019-03-04T20:09:38.871Z,76.71
2019-03-04T20:12:09.797Z,77.41
2019-03-04T20:14:40.890Z,77.11
2019-03-04T20:17:13.440Z,78.35
2019-03-04T20:19:44.271Z,78.79
2019-03-04T20:22:15.441Z,78.80
2019-03-04T20:24:46.301Z,79.29
2019-03-04T20:27:17.167Z,80.08
2019-03-04T20:29:48.215Z,80.43
2019-03-04T20:32:19.153Z,81.21
2019-03-04T20:34:50.311Z,81.29
2019-03-04T20:37:21.428Z,81.59
2019-03-04T20:39:52.273Z,81.93
2019-03-04T20:42:23.143Z,82.16
2019-03-04T20:44:54.188Z,82.43
2019-03-04T20:47:24.970Z,82.54
2019-03-04T20:49:55.796Z,82.83
2019-03-04T20:52:26.894Z,83.03
2019-03-04T20:54:58.225Z,83.18
2019-03-04T20:57:29.388Z,83.40
2019-03-04T21:00:00.391Z,83.88
2019-03-04T21:02:32.796Z,83.88
2019-03-04T21:05:04.687Z,84.05
2019-03-04T21:07:37.017Z,84.51
2019-03-04T21:10:08.688Z,84.58
2019-03-04T21:12:41.176Z,84.26
2019-03-04T21:15:12.622Z,84.35
2019-03-04T21:17:43.691Z,84.71
2019-03-04T21:20:16.196Z,84.22
2019-03-04T21:22:47.488Z,84.20
2019-03-04T21:25:35.773Z,84.45
2019-03-04T21:28:14.678Z,84.18
2019-03-04T21:31:29.732Z,83.71
2019-03-04T21:34:36.351Z,83.24
2019-03-04T21:37:29.576Z,83.41
2019-03-04T21:40:07.022Z,83.16
2019-03-04T21:42:49.588Z,83.05
2019-03-04T21:45:54.341Z,84.14
2019-03-04T21:48:29.936Z,85.11
2019-03-04T21:51:07.659Z,85.65
2019-03-04T21:53:42.329Z,87.42
2019-03-04T21:56:32.632Z,87.89
2019-03-04T21:59:04.201Z,87.48
2019-03-04T22:01:51.660Z,86.77
2019-03-04T22:04:23.114Z,87.36
2019-03-04T22:06:54.019Z,86.21
2019-03-04T22:09:26.389Z,86.39
2019-03-04T22:11:57.303Z,87.57
2019-03-04T22:14:28.149Z,87.33
2019-03-04T22:16:59.470Z,87.08
2019-03-04T22:19:30.502Z,86.68
2019-03-04T22:22:01.292Z,86.32
2019-03-04T22:24:32.195Z,85.76
2019-03-04T22:27:03.553Z,86.29
2019-03-04T22:29:34.689Z,85.22
2019-03-04T22:32:05.769Z,85.66
2019-03-04T22:34:36.784Z,85.24
2019-03-04T22:37:07.613Z,85.73
2019-03-04T22:39:38.570Z,85.27
2019-03-04T22:42:09.408Z,84.99
2019-03-04T22:44:40.816Z,85.52
2019-03-04T22:47:11.723Z,85.53
2019-03-04T22:49:42.831Z,85.92
2019-03-04T22:52:14.055Z,85.63
2019-03-04T22:54:45.254Z,85.83
2019-03-04T22:57:16.333Z,86.11
2019-03-04T22:59:47.435Z,85.39
2019-03-04T23:02:18.889Z,85.50
2019-03-04T23:05:16.273Z,85.56
2019-03-04T23:07:49.887Z,86.08
2019-03-04T23:10:39.315Z,87.41
2019-03-04T23:13:17.759Z,89.52
2019-03-04T23:15:50.610Z,90.49
2019-03-04T23:18:21.470Z,90.46
2019-03-04T23:20:52.243Z,90.93
2019-03-04T23:23:23.382Z,90.57
2019-03-04T23:25:56.281Z,90.40
2019-03-04T23:28:27.315Z,88.45
2019-03-04T23:31:00.049Z,86.24
2019-03-04T23:33:30.820Z,84.87
2019-03-04T23:36:02.892Z,83.97
2019-03-04T23:38:34.032Z,85.18
2019-03-04T23:41:04.957Z,84.45
2019-03-04T23:43:35.982Z,84.00
2019-03-04T23:46:07.049Z,83.06
2019-03-04T23:48:38.442Z,82.67
2019-03-04T23:51:09.364Z,82.33
2019-03-04T23:53:40.450Z,81.98
2019-03-04T23:56:11.477Z,81.56
2019-03-04T23:58:42.684Z,80.54
